Detall de PIREP

Printer-friendly versionPDF version

[2014/09/07 21:23:00]
Flight IATA:CT3203
Pilot Number:042
Company ICAO:CAT
Aircraft Type:A320/E
PAX:119
Departing Airport: LGAV
Destination Airport: LEPA
Alternate Airport:LEBL
Online: VATSIM
Route:RILIN UN604 RUTOM UM601 CRN UL869 CDC UQ152 LURON UP167 LULIX UQ123 USEPI UZ924 RIPAL UM603 MORSS
Flight Level:F360
No Slew and time accel
No pause
Crash detect
Detect pilot in Cockpit between each 30 and 45 minutes
21:23 Zero fuel Weight: 124281 Lbs, Fuel Weight: 42200 Lbs
21:23 VATSIM:LGAV 071950Z 35003KT 9999 FEW025 SCT070 20/17 Q1012 NOSIG
21:23 VATSIM:LEPA 072000Z 00000KT 9999 FEW010 26/22 Q1013 NOSIG
21:40 Parking Brakes off
21:57 Take-off
21:57 Take off Weight: 164272 Lbs
21:57 Wind: 269º @ 008 Knots Heading: 040º
21:57 POS N37º 56´ 26´´ E023º 56´ 13´´
21:57 Gear Up: 141 Knots
21:57 Flaps:3 at 141 Knots
21:57 Flaps:2 at 159 Knots
21:59 Flaps:0 at 204 Knots
22:12 Wind:270º@025 Knots Heading: 273º Ground Speed: 416 Knots Altitude 27060 ft
22:22 TOC
22:22 Fuel Weight: 35639 Lb
22:27 Wind:270º@025 Knots Heading: 280º Ground Speed: 418 Knots Altitude 35987 ft
22:42 Wind:270º@025 Knots Heading: 280º Ground Speed: 418 Knots Altitude 35987 ft
22:57 Wind:270º@025 Knots Heading: 286º Ground Speed: 419 Knots Altitude 35987 ft
23:12 Wind:270º@025 Knots Heading: 272º Ground Speed: 417 Knots Altitude 35987 ft
23:27 Wind:270º@025 Knots Heading: 298º Ground Speed: 420 Knots Altitude 35987 ft
23:42 Wind:270º@025 Knots Heading: 297º Ground Speed: 420 Knots Altitude 35987 ft
23:57 Wind:270º@025 Knots Heading: 278º Ground Speed: 417 Knots Altitude 35987 ft
00:12 Wind:270º@025 Knots Heading: 260º Ground Speed: 416 Knots Altitude 35987 ft
00:13 TOD
00:13 Fuel Weight: 26728 Lb
00:27 Wind:270º@025 Knots Heading: 256º Ground Speed: 279 Knots Altitude 21561 ft
00:42 Wind:269º@018 Knots Heading: 270º Ground Speed: 195 Knots Altitude 5990 ft
00:45 Flaps:1 at 211 Knots
00:49 Gear Down: 189 Knots
00:50 Flaps:3 at 167 Knots
00:50 Flaps:4 at 161 Knots
00:50 Flaps:5 at 161 Knots
00:53 TouchDown:Rate -484 ft/min Speed: 136 Knots
00:53 VATSIM:LEPA 072330Z 00000KT 9999 FEW010 SCT016 22/20 Q1013 NOSIG
00:53 Land
00:53 Wind:269º@008 Knots
00:53 Heading: 241º
00:53 Flight Duration: 02:56
00:53 Landing Weight: 148593 Lbs
00:53 POS N39º 33´ 18´´ E002º 43´ 37´´
00:59 Parking brakes on
00:59 Block to Block Duration: 03:19
00:59 Final Fuel: 23445 Lbls
00:59 Spent Fuel: 18754 Lbls
00:59 Flight Length: 1121 NM
00:59 TOD Land Length: 192 NM

Exportar CSV

Powered by Drupal - Modified by Danger4k